QTR44P OOMS-OTHH
Flight info
| Callsign | QTR44P |
|---|---|
| Flight time | 1h 4m |
| Altitude | 32000 |
| Route | MCT N718 ITRAX P899 TOVOX |
| Aircraft | A320/M-SDE3FGHIRWY/LB1 |
Departure
| Time | 2026-05-07 15:10 |
|---|---|
| Airport | Muscat International Airport (OOMS) |
Arrival
| Time | 2026-05-07 16:14 |
|---|---|
| Airport | Hamad International Airport (OTHH) |
| Time | Latitude | Longitude | Altitude | Speed | Heading |
|---|---|---|---|---|---|
| 2026-05-07 14:51 | 23.59761 | 58.28617 | 38 ft | 0 kts | 85° |
| 2026-05-07 14:59 | 23.59760 | 58.28607 | 38 ft | 4 kts | 85° |
| 2026-05-07 14:59 | 23.59758 | 58.28577 | 38 ft | 4 kts | 85° |
| 2026-05-07 14:59 | 23.59757 | 58.28548 | 38 ft | 4 kts | 95° |
| 2026-05-07 15:00 | 23.59763 | 58.28520 | 38 ft | 4 kts | 120° |
| 2026-05-07 15:00 | 23.59778 | 58.28504 | 35 ft | 2 kts | 174° |
| 2026-05-07 15:00 | 23.59784 | 58.28503 | 38 ft | 0 kts | 175° |
| 2026-05-07 15:02 | 23.59776 | 58.28504 | 35 ft | 4 kts | 175° |
| 2026-05-07 15:03 | 23.59722 | 58.28509 | 38 ft | 11 kts | 175° |
| 2026-05-07 15:03 | 23.59631 | 58.28518 | 38 ft | 15 kts | 175° |
| 2026-05-07 15:03 | 23.59525 | 58.28482 | 38 ft | 19 kts | 248° |
| 2026-05-07 15:03 | 23.59507 | 58.28315 | 39 ft | 25 kts | 265° |
| 2026-05-07 15:04 | 23.59493 | 58.28127 | 39 ft | 27 kts | 265° |
| 2026-05-07 15:04 | 23.59473 | 58.27900 | 40 ft | 33 kts | 265° |
| 2026-05-07 15:04 | 23.59454 | 58.27653 | 40 ft | 28 kts | 265° |
| 2026-05-07 15:04 | 23.59439 | 58.27447 | 40 ft | 25 kts | 264° |
| 2026-05-07 15:05 | 23.59461 | 58.27299 | 41 ft | 19 kts | 334° |
| 2026-05-07 15:05 | 23.59502 | 58.27182 | 41 ft | 18 kts | 268° |
| 2026-05-07 15:05 | 23.59491 | 58.27036 | 41 ft | 20 kts | 265° |
| 2026-05-07 15:05 | 23.59480 | 58.26875 | 40 ft | 22 kts | 265° |
| 2026-05-07 15:06 | 23.59469 | 58.26743 | 42 ft | 13 kts | 264° |
| 2026-05-07 15:06 | 23.59411 | 58.26678 | 42 ft | 14 kts | 182° |
| 2026-05-07 15:06 | 23.59381 | 58.26680 | 41 ft | 0 kts | 176° |
| 2026-05-07 15:08 | 23.59379 | 58.26681 | 42 ft | 2 kts | 176° |
| 2026-05-07 15:08 | 23.59337 | 58.26684 | 42 ft | 10 kts | 176° |
| 2026-05-07 15:08 | 23.59253 | 58.26691 | 42 ft | 13 kts | 175° |
| 2026-05-07 15:09 | 23.59176 | 58.26734 | 43 ft | 14 kts | 107° |
| 2026-05-07 15:09 | 23.59183 | 58.26872 | 42 ft | 33 kts | 84° |
| 2026-05-07 15:09 | 23.59225 | 58.27388 | 40 ft | 101 kts | 85° |
| 2026-05-07 15:09 | 23.59304 | 58.28352 | 39 ft | 152 kts | 85° |
| 2026-05-07 15:10 | 23.59406 | 58.29621 | 258 ft | 173 kts | 85° |
| 2026-05-07 15:10 | 23.59537 | 58.30928 | 854 ft | 173 kts | 82° |
| 2026-05-07 15:10 | 23.59693 | 58.32223 | 1406 ft | 177 kts | 81° |
| 2026-05-07 15:10 | 23.59620 | 58.33571 | 1712 ft | 182 kts | 106° |
| 2026-05-07 15:11 | 23.58894 | 58.34777 | 1851 ft | 203 kts | 144° |
| 2026-05-07 15:11 | 23.57517 | 58.35251 | 1983 ft | 220 kts | 186° |
| 2026-05-07 15:11 | 23.56088 | 58.34567 | 2098 ft | 238 kts | 227° |
| 2026-05-07 15:11 | 23.55322 | 58.32925 | 2303 ft | 256 kts | 262° |
| 2026-05-07 15:12 | 23.55249 | 58.30939 | 2776 ft | 267 kts | 275° |
| 2026-05-07 15:12 | 23.55446 | 58.28916 | 3500 ft | 270 kts | 279° |
| 2026-05-07 15:12 | 23.55708 | 58.26892 | 4255 ft | 271 kts | 279° |
| 2026-05-07 15:12 | 23.55962 | 58.24847 | 5006 ft | 272 kts | 278° |
| 2026-05-07 15:13 | 23.56185 | 58.22768 | 5788 ft | 273 kts | 277° |
| 2026-05-07 15:13 | 23.56375 | 58.20705 | 6543 ft | 274 kts | 276° |
| 2026-05-07 15:13 | 23.56543 | 58.18625 | 7245 ft | 276 kts | 276° |
| 2026-05-07 15:13 | 23.56698 | 58.16526 | 7937 ft | 280 kts | 275° |
| 2026-05-07 15:14 | 23.56848 | 58.14401 | 8625 ft | 283 kts | 274° |
| 2026-05-07 15:14 | 23.56995 | 58.12249 | 9359 ft | 286 kts | 274° |
| 2026-05-07 15:14 | 23.57144 | 58.10072 | 10023 ft | 290 kts | 274° |
| 2026-05-07 15:14 | 23.57298 | 58.07817 | 10292 ft | 309 kts | 274° |
| 2026-05-07 15:15 | 23.57463 | 58.05393 | 10418 ft | 331 kts | 274° |
| 2026-05-07 15:15 | 23.57640 | 58.02813 | 10548 ft | 351 kts | 274° |
| 2026-05-07 15:15 | 23.57826 | 58.00087 | 10709 ft | 368 kts | 274° |
| 2026-05-07 15:15 | 23.58019 | 57.97276 | 11099 ft | 376 kts | 274° |
| 2026-05-07 15:16 | 23.58214 | 57.94408 | 11559 ft | 382 kts | 274° |
| 2026-05-07 15:16 | 23.58411 | 57.91499 | 12039 ft | 388 kts | 274° |
| 2026-05-07 15:16 | 23.58612 | 57.88544 | 12525 ft | 393 kts | 274° |
| 2026-05-07 15:16 | 23.58816 | 57.85555 | 13058 ft | 397 kts | 274° |
| 2026-05-07 15:17 | 23.59013 | 57.82534 | 13574 ft | 402 kts | 273° |
| 2026-05-07 15:17 | 23.59122 | 57.79470 | 14050 ft | 407 kts | 271° |
| 2026-05-07 15:17 | 23.59142 | 57.77382 | 14387 ft | 409 kts | 270° |
| 2026-05-07 15:17 | 23.59122 | 57.74272 | 14900 ft | 412 kts | 269° |
| 2026-05-07 15:18 | 23.59075 | 57.71140 | 15420 ft | 415 kts | 269° |
| 2026-05-07 15:18 | 23.59030 | 57.67986 | 15954 ft | 418 kts | 270° |
| 2026-05-07 15:18 | 23.58999 | 57.64814 | 16486 ft | 420 kts | 270° |
| 2026-05-07 15:18 | 23.58987 | 57.61613 | 17020 ft | 423 kts | 271° |
| 2026-05-07 15:19 | 23.58988 | 57.58400 | 17571 ft | 426 kts | 271° |
| 2026-05-07 15:19 | 23.58992 | 57.55159 | 18070 ft | 429 kts | 271° |
| 2026-05-07 15:19 | 23.58993 | 57.51897 | 18513 ft | 431 kts | 271° |
| 2026-05-07 15:19 | 23.58992 | 57.48618 | 18970 ft | 434 kts | 271° |
| 2026-05-07 15:20 | 23.58988 | 57.45323 | 19407 ft | 436 kts | 271° |
| 2026-05-07 15:20 | 23.58984 | 57.42019 | 19855 ft | 437 kts | 271° |
| 2026-05-07 15:20 | 23.58978 | 57.38698 | 20292 ft | 439 kts | 271° |
| 2026-05-07 15:20 | 23.58969 | 57.35366 | 20774 ft | 439 kts | 271° |
| 2026-05-07 15:21 | 23.58958 | 57.32036 | 21224 ft | 440 kts | 271° |
| 2026-05-07 15:21 | 23.58945 | 57.28691 | 21627 ft | 442 kts | 271° |
| 2026-05-07 15:21 | 23.58931 | 57.25338 | 22029 ft | 443 kts | 271° |
| 2026-05-07 15:21 | 23.58918 | 57.21973 | 22405 ft | 445 kts | 270° |
| 2026-05-07 15:22 | 23.58908 | 57.18593 | 22761 ft | 447 kts | 271° |
| 2026-05-07 15:22 | 23.58921 | 57.15201 | 23123 ft | 448 kts | 274° |
| 2026-05-07 15:22 | 23.59324 | 57.11793 | 23432 ft | 449 kts | 283° |
| 2026-05-07 15:22 | 23.60228 | 57.08535 | 23708 ft | 450 kts | 292° |
| 2026-05-07 15:23 | 23.61487 | 57.05410 | 24030 ft | 450 kts | 294° |
| 2026-05-07 15:23 | 23.62759 | 57.02287 | 24294 ft | 451 kts | 294° |
| 2026-05-07 15:23 | 23.64028 | 56.99153 | 24588 ft | 452 kts | 294° |
| 2026-05-07 15:23 | 23.65296 | 56.96014 | 24848 ft | 454 kts | 294° |
| 2026-05-07 15:24 | 23.66572 | 56.92858 | 25096 ft | 455 kts | 294° |
| 2026-05-07 15:24 | 23.67853 | 56.89693 | 25350 ft | 457 kts | 294° |
| 2026-05-07 15:24 | 23.69138 | 56.86518 | 25607 ft | 458 kts | 294° |
| 2026-05-07 15:24 | 23.70426 | 56.83331 | 25890 ft | 459 kts | 293° |
| 2026-05-07 15:25 | 23.71715 | 56.80139 | 26169 ft | 460 kts | 293° |
| 2026-05-07 15:25 | 23.73005 | 56.76946 | 26508 ft | 459 kts | 293° |
| 2026-05-07 15:25 | 23.74290 | 56.73766 | 26916 ft | 457 kts | 293° |
| 2026-05-07 15:25 | 23.75571 | 56.70595 | 27325 ft | 456 kts | 293° |
| 2026-05-07 15:26 | 23.76835 | 56.67460 | 27718 ft | 454 kts | 292° |
| 2026-05-07 15:26 | 23.78101 | 56.64311 | 28139 ft | 452 kts | 292° |
| 2026-05-07 15:26 | 23.79360 | 56.61169 | 28569 ft | 450 kts | 292° |
| 2026-05-07 15:26 | 23.80610 | 56.58044 | 29019 ft | 449 kts | 292° |
| 2026-05-07 15:27 | 23.81857 | 56.54927 | 29463 ft | 447 kts | 292° |
| 2026-05-07 15:27 | 23.83104 | 56.51821 | 29929 ft | 446 kts | 292° |
| 2026-05-07 15:27 | 23.84350 | 56.48728 | 30315 ft | 444 kts | 292° |
| 2026-05-07 15:27 | 23.85588 | 56.45648 | 30698 ft | 442 kts | 292° |
| 2026-05-07 15:28 | 23.86822 | 56.42574 | 31048 ft | 441 kts | 292° |
| 2026-05-07 15:28 | 23.88050 | 56.39507 | 31420 ft | 440 kts | 292° |
| 2026-05-07 15:28 | 23.89275 | 56.36443 | 31761 ft | 440 kts | 292° |
| 2026-05-07 15:28 | 23.90499 | 56.33381 | 31868 ft | 442 kts | 292° |
| 2026-05-07 15:29 | 23.92985 | 56.27142 | 31892 ft | 451 kts | 292° |
| 2026-05-07 15:29 | 23.95923 | 56.21018 | 31886 ft | 454 kts | 302° |
| 2026-05-07 15:30 | 23.99463 | 56.15295 | 31888 ft | 455 kts | 302° |
| 2026-05-07 15:30 | 24.03000 | 56.09561 | 31878 ft | 455 kts | 302° |
| 2026-05-07 15:31 | 24.06535 | 56.03820 | 31877 ft | 455 kts | 302° |
| 2026-05-07 15:31 | 24.10064 | 55.98079 | 31870 ft | 455 kts | 302° |
| 2026-05-07 15:32 | 24.13591 | 55.92331 | 31869 ft | 455 kts | 302° |
| 2026-05-07 15:32 | 24.17120 | 55.86583 | 31862 ft | 455 kts | 302° |
| 2026-05-07 15:33 | 24.20562 | 55.80772 | 31866 ft | 453 kts | 296° |
| 2026-05-07 15:33 | 24.22659 | 55.74308 | 31866 ft | 451 kts | 283° |
| 2026-05-07 15:34 | 24.24262 | 55.67670 | 31866 ft | 451 kts | 284° |
| 2026-05-07 15:34 | 24.25879 | 55.61031 | 31866 ft | 451 kts | 283° |
| 2026-05-07 15:35 | 24.27320 | 55.54341 | 31875 ft | 451 kts | 281° |
| 2026-05-07 15:35 | 24.28552 | 55.47613 | 31880 ft | 450 kts | 280° |
| 2026-05-07 15:36 | 24.29783 | 55.40890 | 31869 ft | 450 kts | 280° |
| 2026-05-07 15:36 | 24.30905 | 55.34107 | 31854 ft | 448 kts | 276° |
| 2026-05-07 15:37 | 24.31615 | 55.27319 | 31835 ft | 448 kts | 275° |
| 2026-05-07 15:37 | 24.32297 | 55.20572 | 31828 ft | 448 kts | 275° |
| 2026-05-07 15:38 | 24.32987 | 55.13729 | 31820 ft | 448 kts | 275° |
| 2026-05-07 15:38 | 24.33669 | 55.06942 | 31817 ft | 448 kts | 275° |
| 2026-05-07 15:39 | 24.34345 | 55.00154 | 31804 ft | 448 kts | 275° |
| 2026-05-07 15:39 | 24.35020 | 54.93369 | 31793 ft | 448 kts | 275° |
| 2026-05-07 15:40 | 24.35696 | 54.86583 | 31799 ft | 448 kts | 275° |
| 2026-05-07 15:40 | 24.36365 | 54.79804 | 31796 ft | 447 kts | 275° |
| 2026-05-07 15:41 | 24.37031 | 54.73027 | 31790 ft | 447 kts | 275° |
| 2026-05-07 15:41 | 24.37691 | 54.66253 | 31787 ft | 447 kts | 275° |
| 2026-05-07 15:42 | 24.38350 | 54.59479 | 31785 ft | 447 kts | 275° |
| 2026-05-07 15:42 | 24.39010 | 54.52703 | 31784 ft | 447 kts | 275° |
| 2026-05-07 15:43 | 24.40259 | 54.46025 | 31785 ft | 448 kts | 282° |
| 2026-05-07 15:43 | 24.41742 | 54.39388 | 31783 ft | 448 kts | 282° |
| 2026-05-07 15:44 | 24.43218 | 54.32745 | 31790 ft | 448 kts | 282° |
| 2026-05-07 15:44 | 24.44705 | 54.26056 | 31802 ft | 448 kts | 282° |
| 2026-05-07 15:45 | 24.46180 | 54.19420 | 31800 ft | 448 kts | 282° |
| 2026-05-07 15:45 | 24.47649 | 54.12779 | 31804 ft | 447 kts | 282° |
| 2026-05-07 15:46 | 24.49852 | 54.02823 | 31806 ft | 447 kts | 282° |
| 2026-05-07 15:47 | 24.51312 | 53.96181 | 31807 ft | 447 kts | 282° |
| 2026-05-07 15:47 | 24.52784 | 53.89547 | 31805 ft | 447 kts | 282° |
| 2026-05-07 15:48 | 24.54421 | 53.82954 | 31811 ft | 447 kts | 284° |
| 2026-05-07 15:48 | 24.56131 | 53.76386 | 31808 ft | 447 kts | 284° |
| 2026-05-07 15:49 | 24.57808 | 53.69811 | 31817 ft | 446 kts | 283° |
| 2026-05-07 15:49 | 24.59452 | 53.63240 | 31817 ft | 446 kts | 283° |
| 2026-05-07 15:50 | 24.60817 | 53.57732 | 31811 ft | 446 kts | 283° |
| 2026-05-07 15:50 | 24.62447 | 53.51165 | 31812 ft | 445 kts | 283° |
| 2026-05-07 15:51 | 24.64089 | 53.44596 | 31815 ft | 445 kts | 283° |
| 2026-05-07 15:51 | 24.65726 | 53.38033 | 31814 ft | 445 kts | 283° |
| 2026-05-07 15:52 | 24.67353 | 53.31462 | 31809 ft | 445 kts | 283° |
| 2026-05-07 15:52 | 24.68979 | 53.24894 | 31826 ft | 445 kts | 283° |
| 2026-05-07 15:53 | 24.70600 | 53.18329 | 31826 ft | 444 kts | 283° |
| 2026-05-07 15:53 | 24.72213 | 53.11776 | 31824 ft | 444 kts | 283° |
| 2026-05-07 15:54 | 24.73821 | 53.05226 | 31824 ft | 443 kts | 283° |
| 2026-05-07 15:54 | 24.75429 | 52.98678 | 31821 ft | 443 kts | 283° |
| 2026-05-07 15:55 | 24.77029 | 52.92132 | 31817 ft | 443 kts | 283° |
| 2026-05-07 15:55 | 24.78629 | 52.85586 | 31808 ft | 442 kts | 282° |
| 2026-05-07 15:55 | 24.79418 | 52.82358 | 31611 ft | 430 kts | 282° |
| 2026-05-07 15:56 | 24.80187 | 52.79215 | 31061 ft | 425 kts | 282° |
| 2026-05-07 15:56 | 24.80963 | 52.76012 | 29532 ft | 442 kts | 282° |
| 2026-05-07 15:56 | 24.81760 | 52.72714 | 27638 ft | 452 kts | 283° |
| 2026-05-07 15:56 | 24.82579 | 52.69344 | 26618 ft | 456 kts | 283° |
| 2026-05-07 15:57 | 24.83401 | 52.65969 | 25499 ft | 459 kts | 283° |
| 2026-05-07 15:57 | 24.84232 | 52.62558 | 24383 ft | 463 kts | 284° |
| 2026-05-07 15:57 | 24.85078 | 52.59079 | 23267 ft | 466 kts | 284° |
| 2026-05-07 15:57 | 24.85917 | 52.55621 | 22028 ft | 468 kts | 284° |
| 2026-05-07 15:58 | 24.86752 | 52.52170 | 21074 ft | 464 kts | 284° |
| 2026-05-07 15:58 | 24.87580 | 52.48743 | 20087 ft | 463 kts | 283° |
| 2026-05-07 15:58 | 24.88404 | 52.45320 | 19123 ft | 462 kts | 283° |
| 2026-05-07 15:58 | 24.89183 | 52.41893 | 18351 ft | 458 kts | 279° |
| 2026-05-07 15:59 | 24.89538 | 52.38432 | 17561 ft | 454 kts | 270° |
| 2026-05-07 15:59 | 24.89590 | 52.34984 | 17048 ft | 447 kts | 269° |
| 2026-05-07 15:59 | 24.89636 | 52.31549 | 16795 ft | 449 kts | 269° |
| 2026-05-07 15:59 | 24.89685 | 52.28116 | 16599 ft | 447 kts | 270° |
| 2026-05-07 16:00 | 24.89600 | 52.24709 | 16341 ft | 444 kts | 264° |
| 2026-05-07 16:00 | 24.89352 | 52.21327 | 16032 ft | 442 kts | 264° |
| 2026-05-07 16:00 | 24.89104 | 52.17963 | 15724 ft | 439 kts | 264° |
| 2026-05-07 16:00 | 24.88858 | 52.14618 | 15418 ft | 438 kts | 264° |
| 2026-05-07 16:01 | 24.88614 | 52.11283 | 15112 ft | 436 kts | 264° |
| 2026-05-07 16:01 | 24.88372 | 52.07968 | 14805 ft | 434 kts | 264° |
| 2026-05-07 16:01 | 24.88129 | 52.04665 | 14504 ft | 431 kts | 265° |
| 2026-05-07 16:01 | 24.87887 | 52.01380 | 14202 ft | 430 kts | 265° |
| 2026-05-07 16:02 | 24.87648 | 51.98122 | 13926 ft | 420 kts | 266° |
| 2026-05-07 16:02 | 24.87418 | 51.94993 | 13807 ft | 401 kts | 266° |
| 2026-05-07 16:02 | 24.87194 | 51.91998 | 13693 ft | 384 kts | 266° |
| 2026-05-07 16:02 | 24.86977 | 51.89134 | 13574 ft | 367 kts | 266° |
| 2026-05-07 16:03 | 24.86768 | 51.86389 | 13445 ft | 353 kts | 266° |
| 2026-05-07 16:03 | 24.86569 | 51.83776 | 13287 ft | 332 kts | 266° |
| 2026-05-07 16:03 | 24.86378 | 51.81289 | 12801 ft | 321 kts | 266° |
| 2026-05-07 16:03 | 24.86189 | 51.78853 | 12303 ft | 317 kts | 265° |
| 2026-05-07 16:04 | 24.86002 | 51.76416 | 12063 ft | 315 kts | 266° |
| 2026-05-07 16:04 | 24.85822 | 51.74026 | 11737 ft | 312 kts | 265° |
| 2026-05-07 16:04 | 24.85642 | 51.71651 | 11395 ft | 311 kts | 265° |
| 2026-05-07 16:04 | 24.85462 | 51.69276 | 11028 ft | 311 kts | 265° |
| 2026-05-07 16:05 | 24.85283 | 51.66907 | 10690 ft | 310 kts | 265° |
| 2026-05-07 16:05 | 24.85105 | 51.64546 | 10354 ft | 309 kts | 265° |
| 2026-05-07 16:05 | 24.85149 | 51.62191 | 10034 ft | 307 kts | 280° |
| 2026-05-07 16:05 | 24.85793 | 51.59981 | 9494 ft | 303 kts | 298° |
| 2026-05-07 16:06 | 24.86996 | 51.58100 | 8861 ft | 300 kts | 316° |
| 2026-05-07 16:06 | 24.88541 | 51.56850 | 8295 ft | 294 kts | 337° |
| 2026-05-07 16:06 | 24.90483 | 51.56242 | 7690 ft | 289 kts | 359° |
| 2026-05-07 16:06 | 24.92445 | 51.56459 | 7106 ft | 281 kts | 20° |
| 2026-05-07 16:07 | 24.94283 | 51.57164 | 6540 ft | 278 kts | 22° |
| 2026-05-07 16:07 | 24.96094 | 51.57875 | 5964 ft | 276 kts | 21° |
| 2026-05-07 16:07 | 24.97791 | 51.58803 | 5379 ft | 271 kts | 41° |
| 2026-05-07 16:07 | 24.98950 | 51.60321 | 5218 ft | 249 kts | 63° |
| 2026-05-07 16:08 | 24.99630 | 51.62020 | 4906 ft | 238 kts | 68° |
| 2026-05-07 16:08 | 25.00256 | 51.63702 | 4436 ft | 238 kts | 69° |
| 2026-05-07 16:08 | 25.00878 | 51.65387 | 4142 ft | 236 kts | 70° |
| 2026-05-07 16:08 | 25.01495 | 51.67060 | 3844 ft | 235 kts | 68° |
| 2026-05-07 16:09 | 25.02224 | 51.68668 | 3527 ft | 236 kts | 55° |
| 2026-05-07 16:09 | 25.03388 | 51.69941 | 3179 ft | 238 kts | 35° |
| 2026-05-07 16:09 | 25.04894 | 51.70688 | 3007 ft | 241 kts | 14° |
| 2026-05-07 16:09 | 25.06573 | 51.70811 | 3005 ft | 245 kts | 353° |
| 2026-05-07 16:10 | 25.08211 | 51.70303 | 3010 ft | 246 kts | 338° |
| 2026-05-07 16:10 | 25.09797 | 51.69603 | 2995 ft | 245 kts | 339° |
| 2026-05-07 16:10 | 25.11366 | 51.68912 | 2777 ft | 241 kts | 338° |
| 2026-05-07 16:10 | 25.12916 | 51.68231 | 2514 ft | 239 kts | 338° |
| 2026-05-07 16:11 | 25.14442 | 51.67561 | 2213 ft | 231 kts | 338° |
| 2026-05-07 16:11 | 25.15905 | 51.66918 | 1940 ft | 223 kts | 338° |
| 2026-05-07 16:11 | 25.17309 | 51.66302 | 1667 ft | 211 kts | 338° |
| 2026-05-07 16:11 | 25.18632 | 51.65720 | 1418 ft | 194 kts | 338° |
| 2026-05-07 16:12 | 25.19842 | 51.65188 | 1156 ft | 178 kts | 338° |
| 2026-05-07 16:12 | 25.20900 | 51.64723 | 953 ft | 152 kts | 337° |
| 2026-05-07 16:12 | 25.21844 | 51.64308 | 783 ft | 144 kts | 338° |
| 2026-05-07 16:12 | 25.22760 | 51.63905 | 649 ft | 140 kts | 339° |
| 2026-05-07 16:13 | 25.23641 | 51.63506 | 456 ft | 135 kts | 338° |
| 2026-05-07 16:13 | 25.24506 | 51.63124 | 334 ft | 134 kts | 343° |
| 2026-05-07 16:13 | 25.25381 | 51.62745 | 140 ft | 135 kts | 340° |
| 2026-05-07 16:13 | 25.26227 | 51.62379 | 31 ft | 119 kts | 338° |
| 2026-05-07 16:14 | 25.26839 | 51.62107 | 24 ft | 64 kts | 338° |
| 2026-05-07 16:14 | 25.27188 | 51.61955 | 29 ft | 44 kts | 339° |
| 2026-05-07 16:14 | 25.27362 | 51.61851 | 27 ft | 23 kts | 314° |
| 2026-05-07 16:14 | 25.27448 | 51.61741 | 28 ft | 15 kts | 304° |
| 2026-05-07 16:15 | 25.27421 | 51.61658 | 29 ft | 14 kts | 186° |
| 2026-05-07 16:15 | 25.27319 | 51.61693 | 29 ft | 17 kts | 160° |
| 2026-05-07 16:15 | 25.27203 | 51.61741 | 28 ft | 19 kts | 156° |
| 2026-05-07 16:15 | 25.27076 | 51.61804 | 28 ft | 21 kts | 155° |
| 2026-05-07 16:16 | 25.26931 | 51.61869 | 28 ft | 24 kts | 158° |
| 2026-05-07 16:16 | 25.26773 | 51.61937 | 28 ft | 22 kts | 159° |
| 2026-05-07 16:16 | 25.26636 | 51.61995 | 28 ft | 20 kts | 159° |
| 2026-05-07 16:16 | 25.26556 | 51.61955 | 29 ft | 14 kts | 249° |
| 2026-05-07 16:17 | 25.26531 | 51.61853 | 30 ft | 14 kts | 282° |
| 2026-05-07 16:17 | 25.26578 | 51.61759 | 30 ft | 16 kts | 264° |
| 2026-05-07 16:17 | 25.26574 | 51.61672 | 30 ft | 11 kts | 328° |